Time;durP1;ratioP1;P1;durP2;ratioP2;P2;SDS_P1;SDS_P2;PMS_P1;PMS_P2;Temp;Humidity;BMP_temperature;BMP_pressure;BME280_temperature;BME280_humidity;BME280_pressure;Samples;Min_cycle;Max_cycle;Signal;HPM_P1;HPM_P2
2022/11/13 00:02:02;;;;;;;;;;;;;;;-144.99;100.00;52464.41;5062183;28;19995;-65
2022/11/13 00:04:29;;;;;;;;;;;;;;;-144.99;100.00;52456.25;5053046;28;19944;-65
2022/11/13 00:06:55;;;;;;;;;;;;;;;-144.99;100.00;52470.50;5057325;28;19999;-65
2022/11/13 00:09:22;;;;;;;;;;;;;;;-144.99;100.00;52472.56;5053811;28;19991;-66
2022/11/13 00:11:48;;;;;;;;;;;;;;;-144.99;100.00;52450.13;5060039;28;19956;-65
2022/11/13 00:14:15;;;;;;;;;;;;;;;-144.99;100.00;52468.47;5058905;28;20373;-64
2022/11/13 00:16:41;;;;;;;;;;;;;;;-144.99;100.00;52492.94;5058911;28;20509;-64
2022/11/13 00:19:09;;;;;;;;;;;;;;;-144.99;100.00;52468.47;5063353;28;19965;-64
2022/11/13 00:21:36;;;;;;;;;;;;;;;-144.99;100.00;52464.41;5060391;28;20277;-65
2022/11/13 00:24:02;;;;;;;;;;;;;;;-144.99;100.00;52464.41;5058531;28;20014;-67
2022/11/13 00:26:30;;;;;;;;;;;;;;;-144.99;100.00;52448.09;5062627;28;19957;-69
2022/11/13 00:28:57;;;;;;;;;;;;;;;-144.99;100.00;52492.94;5054086;28;20041;-70
2022/11/13 00:31:24;;;;;;;;;;;;;;;-144.99;100.00;52456.25;5057514;28;20050;-70
2022/11/13 00:33:51;;;;;;;;;;;;;;;-144.99;100.00;52464.41;5059784;28;20089;-69
2022/11/13 00:36:19;;;;;;;;;;;;;;;-144.99;100.00;52407.31;5064446;28;20057;-69
2022/11/13 00:38:46;;;;;;;;;;;;;;;-144.99;100.00;52448.09;5058073;28;20021;-69
2022/11/13 00:41:13;;;;;;;;;;;;;;;-144.99;100.00;52464.41;5061790;28;19928;-66
2022/11/13 00:43:40;;;;;;;;;;;;;;;-144.99;100.00;52476.63;5062023;28;19946;-65
2022/11/13 00:46:06;;;;;;;;;;;;;;;-144.99;100.00;52450.13;5063594;28;20337;-66
2022/11/13 00:48:33;;;;;;;;;;;;;;;-144.99;100.00;52448.09;5063860;28;20305;-66
2022/11/13 00:51:00;;;;;;;;;;;;;;;-144.99;100.00;52482.75;5064083;28;20003;-66
2022/11/13 00:53:27;;;;;;;;;;;;;;;-144.99;100.00;52492.94;5057522;28;20026;-66
2022/11/13 00:55:54;;;;;;;;;;;;;;;-144.99;100.00;52482.75;5059270;28;20732;-66
2022/11/13 00:58:21;;;;;;;;;;;;;;;-144.99;100.00;52464.41;5061823;28;19948;-64
2022/11/13 01:00:48;;;;;;;;;;;;;;;-144.99;100.00;52464.41;5059253;28;20685;-65
2022/11/13 01:03:15;;;;;;;;;;;;;;;-144.99;100.00;52435.88;5062413;28;20305;-66
2022/11/13 01:05:42;;;;;;;;;;;;;;;-144.99;100.00;52458.28;5062038;28;20008;-64
2022/11/13 01:08:09;;;;;;;;;;;;;;;-144.99;100.00;52476.63;5061543;28;19982;-65
2022/11/13 01:10:39;;;;;;;;;;;;;;;-144.99;100.00;52492.94;5052853;28;19954;-65
2022/11/13 01:13:06;;;;;;;;;;;;;;;-144.99;100.00;52486.81;5057948;28;20018;-65
2022/11/13 01:15:32;;;;;;;;;;;;;;;-144.99;100.00;52458.28;5062688;28;20012;-65
2022/11/13 01:17:59;;;;;;;;;;;;;;;-144.99;100.00;52460.31;5069629;28;19977;-65
2022/11/13 01:20:26;;;;;;;;;;;;;;;-144.99;100.00;52517.41;5072890;28;19964;-67
2022/11/13 01:22:52;;;;;;;;;;;;;;;-144.99;100.00;52480.72;5062144;28;20435;-66
2022/11/13 01:25:19;;;;;;;;;;;;;;;-144.99;100.00;52529.63;5060104;28;19932;-66
2022/11/13 01:27:47;;;;;;;;;;;;;;;-144.99;100.00;52484.78;5060433;28;19956;-67
2022/11/13 01:30:13;;;;;;;;;;;;;;;-144.99;100.00;52486.81;5062615;28;20059;-67
2022/11/13 01:32:39;;;;;;;;;;;;;;;-144.99;100.00;52476.63;5056654;28;19944;-66
2022/11/13 01:35:06;;;;;;;;;;;;;;;-144.99;100.00;52433.81;5058721;28;20039;-67
2022/11/13 01:37:33;;;;;;;;;;;;;;;-144.99;100.00;52452.16;5058500;28;20265;-67
2022/11/13 01:39:59;;;;;;;;;;;;;;;-144.99;100.00;52480.72;5060484;28;19964;-68
2022/11/13 01:42:26;;;;;;;;;;;;;;;-144.99;100.00;52429.75;5055399;28;19994;-68
2022/11/13 01:44:55;;;;;;;;;;;;;;;-144.99;100.00;52472.56;5058788;28;19982;-67
2022/11/13 01:47:23;;;;;;;;;;;;;;;-144.99;100.00;52456.25;5056048;28;20452;-70
2022/11/13 01:49:51;;;;;;;;;;;;;;;-144.99;100.00;52492.94;5062011;28;19992;-68
2022/11/13 01:52:19;;;;;;;;;;;;;;;-144.99;100.00;52460.31;5059468;28;20081;-65
2022/11/13 01:54:50;;;;;;;;;;;;;;;-144.99;100.00;52521.47;5064314;28;20014;-67
2022/11/13 01:57:16;;;;;;;;;;;;;;;-144.99;100.00;52439.94;5052561;28;19952;-66
2022/11/13 01:59:46;;;;;;;;;;;;;;;-144.99;100.00;52488.84;5060778;28;20037;-67
2022/11/13 02:02:14;;;;;;;;;;;;;;;-144.99;100.00;52501.09;5078115;28;19951;-71
2022/11/13 02:04:41;;;;;;;;;;;;;;;-144.99;100.00;52468.47;5064298;28;19934;-70
2022/11/13 02:07:08;;;;;;;;;;;;;;;-144.99;100.00;52474.59;5056800;28;20014;-70
2022/11/13 02:09:36;;;;;;;;;;;;;;;-144.99;100.00;52448.09;5059696;28;20410;-72
2022/11/13 02:12:04;;;;;;;;;;;;;;;-144.99;100.00;52486.81;5060929;28;20056;-70
2022/11/13 02:14:31;;;;;;;;;;;;;;;-144.99;100.00;52431.78;5061580;28;20033;-69
2022/11/13 02:16:59;;;;;;;;;;;;;;;-144.99;100.00;52460.31;5054032;28;19949;-70
2022/11/13 02:19:30;;;;;;;;;;;;;;;-144.99;100.00;52488.84;5059511;28;19951;-69
2022/11/13 02:22:02;;;;;;;;;;;;;;;-144.99;100.00;52480.72;5058210;28;20358;-64
2022/11/13 02:24:32;;;;;;;;;;;;;;;-144.99;100.00;52468.47;5052977;28;20637;-64
2022/11/13 02:27:01;;;;;;;;;;;;;;;-144.99;100.00;52472.56;5049817;28;20606;-65
2022/11/13 02:29:27;;;;;;;;;;;;;;;-144.99;100.00;52452.16;5058969;28;20041;-63
2022/11/13 02:31:54;;;;;;;;;;;;;;;-144.99;100.00;52503.13;5057340;28;20001;-65
2022/11/13 02:34:21;;;;;;;;;;;;;;;-144.99;100.00;52503.13;5055573;28;19943;-63
2022/11/13 02:36:47;;;;;;;;;;;;;;;-144.99;100.00;52448.09;5061834;28;19993;-67
2022/11/13 02:39:14;;;;;;;;;;;;;;;-144.99;100.00;52480.72;5059613;28;20018;-65
2022/11/13 02:41:41;;;;;;;;;;;;;;;-144.99;100.00;52468.47;5058789;28;20011;-66
2022/11/13 02:44:10;;;;;;;;;;;;;;;-144.99;100.00;52423.63;5059515;28;20686;-66
2022/11/13 02:46:37;;;;;;;;;;;;;;;-144.99;100.00;52456.25;5050273;28;20049;-66
2022/11/13 02:49:03;;;;;;;;;;;;;;;-144.99;100.00;52435.88;5061363;28;20047;-65
2022/11/13 02:51:30;;;;;;;;;;;;;;;-144.99;100.00;52468.47;5059628;28;20025;-67
2022/11/13 02:53:56;;;;;;;;;;;;;;;-144.99;100.00;52446.06;5054977;28;20327;-66
2022/11/13 02:56:23;;;;;;;;;;;;;;;-144.99;100.00;52435.88;5060661;28;20195;-65
2022/11/13 02:58:51;;;;;;;;;;;;;;;-144.99;100.00;52460.31;5054985;28;19947;-64
2022/11/13 03:01:17;;;;;;;;;;;;;;;-144.99;100.00;52464.41;5060502;28;19960;-63
2022/11/13 03:03:44;;;;;;;;;;;;;;;-144.99;100.00;52460.31;5052079;28;20018;-69
2022/11/13 03:06:10;;;;;;;;;;;;;;;-144.99;100.00;52460.31;5045341;28;19962;-68
2022/11/13 03:08:37;;;;;;;;;;;;;;;-144.99;100.00;52460.31;5056520;28;19946;-68
2022/11/13 03:11:07;;;;;;;;;;;;;;;-144.99;100.00;52497.00;5063839;28;20423;-70
2022/11/13 03:13:33;;;;;;;;;;;;;;;-144.99;100.00;52533.69;5057411;28;19970;-70
2022/11/13 03:16:06;;;;;;;;;;;;;;;-144.99;100.00;52474.59;5057149;28;20017;-71
2022/11/13 03:18:32;;;;;;;;;;;;;;;-144.99;100.00;52460.31;4707250;28;10000433;-70
2022/11/13 03:21:07;;;;;;;;;;;;;;;-144.99;100.00;52460.31;5058258;28;20028;-70
2022/11/13 03:23:33;;;;;;;;;;;;;;;-144.99;100.00;52423.63;5063159;28;20436;-71
2022/11/13 03:26:02;;;;;;;;;;;;;;;-144.99;100.00;52456.25;5069063;28;19943;-66
2022/11/13 03:28:28;;;;;;;;;;;;;;;-144.99;100.00;52503.13;5058074;28;20231;-65
2022/11/13 03:30:55;;;;;;;;;;;;;;;-144.99;100.00;52470.50;5053510;28;20008;-65
2022/11/13 03:33:23;;;;;;;;;;;;;;;-144.99;100.00;52431.78;5047958;28;19944;-65
2022/11/13 03:35:49;;;;;;;;;;;;;;;-144.99;100.00;52480.72;5059727;28;20325;-65
2022/11/13 03:38:16;;;;;;;;;;;;;;;-144.99;100.00;52454.22;5059478;28;19944;-65
2022/11/13 03:40:43;;;;;;;;;;;;;;;-144.99;100.00;52446.06;5066066;28;19954;-65
2022/11/13 03:43:09;;;;;;;;;;;;;;;-144.99;100.00;52472.56;5057276;28;19947;-65
2022/11/13 03:45:36;;;;;;;;;;;;;;;-144.99;100.00;52509.25;5060988;28;19987;-65
2022/11/13 03:48:02;;;;;;;;;;;;;;;-144.99;100.00;52429.75;5058581;28;19963;-65
2022/11/13 03:50:30;;;;;;;;;;;;;;;-144.99;100.00;52468.47;5051679;28;20356;-66
2022/11/13 03:52:57;;;;;;;;;;;;;;;-144.99;100.00;52452.16;5059023;28;20404;-65
2022/11/13 03:55:23;;;;;;;;;;;;;;;-144.99;100.00;52415.47;5066672;28;20008;-64
2022/11/13 03:57:50;;;;;;;;;;;;;;;-144.99;100.00;52476.63;5067550;28;20312;-65
2022/11/13 04:00:17;;;;;;;;;;;;;;;-144.99;100.00;52439.94;5058349;28;19976;-65
2022/11/13 04:02:43;;;;;;;;;;;;;;;-144.99;100.00;52456.25;5056356;28;19952;-65
2022/11/13 04:05:10;;;;;;;;;;;;;;;-144.99;100.00;52448.09;5066563;28;19943;-65
2022/11/13 04:07:41;;;;;;;;;;;;;;;-144.99;100.00;52468.47;5077221;28;20044;-66
2022/11/13 04:10:08;;;;;;;;;;;;;;;-144.99;100.00;52448.09;5066881;28;19992;-65
2022/11/13 04:12:34;;;;;;;;;;;;;;;-144.99;100.00;52468.47;5059536;28;19940;-66
2022/11/13 04:15:01;;;;;;;;;;;;;;;-144.99;100.00;52476.63;5062228;28;20040;-65
2022/11/13 04:17:27;;;;;;;;;;;;;;;-144.99;100.00;52484.78;5052097;28;19964;-66
2022/11/13 04:19:54;;;;;;;;;;;;;;;-144.99;100.00;52472.56;5051343;28;20407;-65
2022/11/13 04:22:20;;;;;;;;;;;;;;;-144.99;100.00;52460.31;5060597;28;19960;-65
2022/11/13 04:24:48;;;;;;;;;;;;;;;-144.99;100.00;52509.25;5056364;28;20392;-66
2022/11/13 04:27:15;;;;;;;;;;;;;;;-144.99;100.00;52462.34;5049002;28;19993;-65
2022/11/13 04:29:41;;;;;;;;;;;;;;;-144.99;100.00;52431.78;5058175;28;20226;-63
2022/11/13 04:32:08;;;;;;;;;;;;;;;-144.99;100.00;52509.25;5059914;28;20049;-67
2022/11/13 04:34:34;;;;;;;;;;;;;;;-144.99;100.00;52476.63;5061786;28;20030;-65
2022/11/13 04:37:01;;;;;;;;;;;;;;;-144.99;100.00;52472.56;5058955;28;20003;-66
2022/11/13 04:39:27;;;;;;;;;;;;;;;-144.99;100.00;52476.63;5055189;28;20401;-65
2022/11/13 04:44:39;;;;;;;;;;;;;;;-144.99;100.00;52513.31;5051811;28;19948;-66
2022/11/13 04:47:06;;;;;;;;;;;;;;;-144.99;100.00;52494.97;5061368;28;20473;-66
2022/11/13 04:49:32;;;;;;;;;;;;;;;-144.99;100.00;52474.59;5065834;28;19942;-68
2022/11/13 04:51:59;;;;;;;;;;;;;;;-144.99;100.00;52464.41;5066802;28;20019;-65
2022/11/13 04:54:25;;;;;;;;;;;;;;;-144.99;100.00;52505.16;5064035;28;19942;-67
2022/11/13 04:56:52;;;;;;;;;;;;;;;-144.99;100.00;52484.78;5055306;28;19937;-68
2022/11/13 04:59:20;;;;;;;;;;;;;;;-144.99;100.00;52444.03;5053524;28;19974;-69
2022/11/13 05:01:46;;;;;;;;;;;;;;;-144.99;100.00;52448.09;5069367;28;20344;-69
2022/11/13 05:04:13;;;;;;;;;;;;;;;-144.99;100.00;52525.56;5055030;28;19983;-68
2022/11/13 05:06:40;;;;;;;;;;;;;;;-144.99;100.00;52507.19;5066056;28;20067;-68
2022/11/13 05:09:06;;;;;;;;;;;;;;;-144.99;100.00;52480.72;5054021;28;19993;-68
2022/11/13 05:11:33;;;;;;;;;;;;;;;-144.99;100.00;52476.63;5056882;28;20027;-67
2022/11/13 05:13:59;;;;;;;;;;;;;;;-144.99;100.00;52423.63;5078710;23;19959;-72
2022/11/13 05:16:27;;;;;;;;;;;;;;;-144.99;100.00;52501.09;5085571;28;19985;-71
2022/11/13 05:18:54;;;;;;;;;;;;;;;-144.99;100.00;52494.97;5091312;28;19953;-70
2022/11/13 05:21:20;;;;;;;;;;;;;;;-144.99;100.00;52488.84;5088970;28;19988;-70
2022/11/13 05:23:47;;;;;;;;;;;;;;;-144.99;100.00;52494.97;5081483;28;19936;-69
2022/11/13 05:26:13;;;;;;;;;;;;;;;-144.99;100.00;52427.72;5086277;28;19949;-69
2022/11/13 05:28:40;;;;;;;;;;;;;;;-144.99;100.00;52476.63;5072566;28;20037;-69
2022/11/13 05:31:07;;;;;;;;;;;;;;;-144.99;100.00;52484.78;5067520;28;20483;-71
2022/11/13 05:33:35;;;;;;;;;;;;;;;-144.99;100.00;52456.25;5064156;28;20417;-72
2022/11/13 05:36:03;;;;;;;;;;;;;;;-144.99;100.00;52460.31;5070125;28;20027;-71
2022/11/13 05:38:29;;;;;;;;;;;;;;;-144.99;100.00;52460.31;5063969;28;20025;-72
2022/11/13 05:41:01;;;;;;;;;;;;;;;-144.99;100.00;52427.72;5070637;28;20023;-72
2022/11/13 05:43:27;;;;;;;;;;;;;;;-144.99;100.00;52456.25;5065712;28;19942;-71
2022/11/13 05:45:58;;;;;;;;;;;;;;;-144.99;100.00;52444.03;5067702;28;19941;-72
2022/11/13 05:48:25;;;;;;;;;;;;;;;-144.99;100.00;52452.16;5063036;28;20377;-76
2022/11/13 05:50:53;;;;;;;;;;;;;;;-144.99;100.00;52472.56;5057442;28;19966;-76
2022/11/13 05:53:19;;;;;;;;;;;;;;;-144.99;100.00;52439.94;5056919;28;19928;-76
2022/11/13 05:55:46;;;;;;;;;;;;;;;-144.99;100.00;52429.75;5071176;28;20037;-70
2022/11/13 05:58:12;;;;;;;;;;;;;;;-144.99;100.00;52501.09;5071117;28;19965;-76
2022/11/13 06:00:39;;;;;;;;;;;;;;;-144.99;100.00;52488.84;5071929;28;20015;-75
2022/11/13 06:03:05;;;;;;;;;;;;;;;-144.99;100.00;52472.56;5068822;28;19990;-74
2022/11/13 06:05:34;;;;;;;;;;;;;;;-144.99;100.00;52444.03;5070906;28;20043;-74
2022/11/13 06:08:02;;;;;;;;;;;;;;;-144.99;100.00;52472.56;5064362;28;19956;-74
2022/11/13 06:10:28;;;;;;;;;;;;;;;-144.99;100.00;52492.94;5053649;28;20242;-74
2022/11/13 06:12:55;;;;;;;;;;;;;;;-144.99;100.00;52435.88;5060777;28;19937;-74
2022/11/13 06:15:21;;;;;;;;;;;;;;;-144.99;100.00;52509.25;5059341;28;19987;-74
2022/11/13 06:17:48;;;;;;;;;;;;;;;-144.99;100.00;52439.94;5059831;28;20038;-75
2022/11/13 06:20:14;;;;;;;;;;;;;;;-144.99;100.00;52472.56;5069354;28;19928;-76
2022/11/13 06:22:41;;;;;;;;;;;;;;;-144.99;100.00;52484.78;5063722;28;20405;-74
2022/11/13 06:25:09;;;;;;;;;;;;;;;-144.99;100.00;52501.09;5071763;28;20561;-75
2022/11/13 06:27:36;;;;;;;;;;;;;;;-144.99;100.00;52488.84;5069282;28;20012;-75
2022/11/13 06:30:02;;;;;;;;;;;;;;;-144.99;100.00;52480.72;5070901;28;19976;-75
2022/11/13 06:32:29;;;;;;;;;;;;;;;-144.99;100.00;52476.63;5065155;28;19949;-74
2022/11/13 06:34:55;;;;;;;;;;;;;;;-144.99;100.00;52470.50;5062731;28;19944;-72
2022/11/13 06:37:22;;;;;;;;;;;;;;;-144.99;100.00;52492.94;5069874;28;19939;-74
2022/11/13 06:39:48;;;;;;;;;;;;;;;-144.99;100.00;52435.88;5070565;28;20031;-72
2022/11/13 06:42:16;;;;;;;;;;;;;;;-144.99;100.00;52468.47;5067792;28;19994;-71
2022/11/13 06:44:43;;;;;;;;;;;;;;;-144.99;100.00;52480.72;5061105;28;20009;-72
2022/11/13 06:47:09;;;;;;;;;;;;;;;-144.99;100.00;52484.78;5060247;28;19976;-72
2022/11/13 06:49:36;;;;;;;;;;;;;;;-144.99;100.00;52452.16;5065508;28;19945;-71
2022/11/13 06:52:02;;;;;;;;;;;;;;;-144.99;100.00;52488.84;5067165;28;20069;-71
2022/11/13 06:54:29;;;;;;;;;;;;;;;-144.99;100.00;52464.41;5067518;28;19941;-72
2022/11/13 06:56:55;;;;;;;;;;;;;;;-144.99;100.00;52470.50;5068930;28;19924;-71
2022/11/13 06:59:23;;;;;;;;;;;;;;;-144.99;100.00;52476.63;5065920;28;19956;-72
2022/11/13 07:01:50;;;;;;;;;;;;;;;-144.99;100.00;52450.13;5062974;28;20838;-73
2022/11/13 07:04:17;;;;;;;;;;;;;;;-144.99;100.00;52472.56;5059125;28;20021;-72
2022/11/13 07:06:43;;;;;;;;;;;;;;;-144.99;100.00;52427.72;5064068;28;19959;-71
2022/11/13 07:09:10;;;;;;;;;;;;;;;-144.99;100.00;52476.63;5067678;28;20042;-72
2022/11/13 07:11:36;;;;;;;;;;;;;;;-144.99;100.00;52450.13;5061821;28;20030;-71
2022/11/13 07:14:03;;;;;;;;;;;;;;;-144.99;100.00;52458.28;5066224;28;20397;-71
2022/11/13 07:16:31;;;;;;;;;;;;;;;-144.99;100.00;52464.41;5068785;28;20334;-71
2022/11/13 07:18:58;;;;;;;;;;;;;;;-144.99;100.00;52480.72;5065908;28;20102;-73
2022/11/13 07:21:24;;;;;;;;;;;;;;;-144.99;100.00;52460.31;5069445;28;20014;-73
2022/11/13 07:23:51;;;;;;;;;;;;;;;-144.99;100.00;52472.56;5066496;28;19978;-73
2022/11/13 07:26:18;;;;;;;;;;;;;;;-144.99;100.00;52460.31;5063570;28;19967;-73
2022/11/13 07:28:44;;;;;;;;;;;;;;;-144.99;100.00;52470.50;5060880;28;19970;-73
2022/11/13 07:31:12;;;;;;;;;;;;;;;-144.99;100.00;52464.41;5062592;28;20048;-72
2022/11/13 07:33:39;;;;;;;;;;;;;;;-144.99;100.00;52435.88;5058380;28;20006;-73
2022/11/13 07:36:07;;;;;;;;;;;;;;;-144.99;100.00;52490.91;5063286;28;20008;-74
2022/11/13 07:38:33;;;;;;;;;;;;;;;-144.99;100.00;52437.91;5069943;28;20300;-75
2022/11/13 07:41:00;;;;;;;;;;;;;;;-144.99;100.00;52427.72;5059056;28;19971;-74
2022/11/13 07:43:26;;;;;;;;;;;;;;;-144.99;100.00;52480.72;5057365;28;19946;-73
2022/11/13 07:45:54;;;;;;;;;;;;;;;-144.99;100.00;52446.06;5062442;28;20298;-73
2022/11/13 07:48:21;;;;;;;;;;;;;;;-144.99;100.00;52456.25;5063899;28;20364;-73
2022/11/13 07:50:49;;;;;;;;;;;;;;;-144.99;100.00;52437.91;5068599;28;19952;-73
2022/11/13 07:53:15;;;;;;;;;;;;;;;-144.99;100.00;52452.16;5064473;28;20039;-73
2022/11/13 07:55:42;;;;;;;;;;;;;;;-144.99;100.00;52452.16;5060807;28;19939;-73
2022/11/13 07:58:09;;;;;;;;;;;;;;;-144.99;100.00;52407.31;5057694;28;19990;-73
2022/11/13 08:00:36;;;;;;;;;;;;;;;-144.99;100.00;52427.72;5069874;28;20003;-73
2022/11/13 08:03:06;;;;;;;;;;;;;;;-144.99;100.00;52456.25;5061477;28;19960;-69
2022/11/13 08:05:32;;;;;;;;;;;;;;;-144.99;100.00;52448.09;5064460;28;19945;-69
2022/11/13 08:08:00;;;;;;;;;;;;;;;-144.99;100.00;52425.66;5061104;28;19925;-68
2022/11/13 08:10:27;;;;;;;;;;;;;;;-144.99;100.00;52431.78;5057825;28;20002;-70
2022/11/13 08:12:58;;;;;;;;;;;;;;;-144.99;100.00;52444.03;5062726;28;19956;-76
2022/11/13 08:15:24;;;;;;;;;;;;;;;-144.99;100.00;52399.19;5052890;28;19969;-73
2022/11/13 08:17:53;;;;;;;;;;;;;;;-144.99;100.00;52437.91;5067835;28;19994;-76
2022/11/13 08:20:20;;;;;;;;;;;;;;;-144.99;98.63;52386.94;5050601;28;20054;-77
2022/11/13 08:22:46;;;;;;;;;;;;;;;-144.99;97.81;52415.47;5061583;28;19961;-78
2022/11/13 08:25:14;;;;;;;;;;;;;;;-144.99;96.21;52431.78;5059769;28;19987;-75
2022/11/13 08:27:41;;;;;;;;;;;;;;;-144.99;95.00;52433.81;5066174;28;19991;-76
2022/11/13 08:30:08;;;;;;;;;;;;;;;-144.99;93.92;52417.53;5073157;28;19975;-75
2022/11/13 08:32:34;;;;;;;;;;;;;;;-144.99;92.75;52403.25;5071620;28;19939;-75
2022/11/13 08:35:01;;;;;;;;;;;;;;;-144.99;91.39;52405.28;5085299;28;19986;-76
2022/11/13 08:37:27;;;;;;;;;;;;;;;-144.99;88.72;52411.41;5075053;28;19947;-76
2022/11/13 08:39:54;;;;;;;;;;;;;;;-144.99;88.39;52419.56;5074514;28;19964;-75
2022/11/13 08:42:22;;;;;;;;;;;;;;;-144.99;86.47;52360.44;5081573;28;19958;-76
2022/11/13 08:44:48;;;;;;;;;;;;;;;-144.99;85.46;52435.88;5067186;28;20012;-75
2022/11/13 08:47:15;;;;;;;;;;;;;;;-144.99;85.65;52425.66;5065099;28;19928;-75
2022/11/13 08:49:42;;;;;;;;;;;;;;;-144.99;85.53;52397.13;5071046;28;19971;-76
2022/11/13 08:52:09;;;;;;;;;;;;;;;-144.99;85.50;52382.88;5065403;28;20009;-78
2022/11/13 08:54:35;;;;;;;;;;;;;;;-144.99;85.78;52395.09;5066641;28;20041;-78
2022/11/13 08:57:02;;;;;;;;;;;;;;;-144.99;85.29;52415.47;5068308;28;20431;-78
2022/11/13 08:59:30;;;;;;;;;;;;;;;-144.99;85.77;52391.03;5062365;28;19962;-78
2022/11/13 09:01:58;;;;;;;;;;;;;;;-144.99;84.66;52415.47;5062947;28;20009;-78
2022/11/13 09:04:25;;;;;;;;;;;;;;;-144.99;83.98;52391.03;5069153;28;19941;-78
2022/11/13 09:06:51;;;;;;;;;;;;;;;-144.99;83.14;52407.31;5070460;28;20000;-77
2022/11/13 09:09:18;;;;;;;;;;;;;;;-144.99;81.26;52397.13;5065512;28;20374;-78
2022/11/13 09:11:45;;;;;;;;;;;;;;;-144.99;79.69;52338.03;5058432;28;19993;-77
2022/11/13 09:14:11;;;;;;;;;;;;;;;-144.99;78.71;52401.22;5069811;28;19947;-78
2022/11/13 09:16:39;;;;;;;;;;;;;;;-144.99;78.33;52354.34;5061692;28;19958;-77
2022/11/13 09:19:06;;;;;;;;;;;;;;;-144.99;79.41;52370.63;5060274;28;20169;-77
2022/11/13 09:21:32;;;;;;;;;;;;;;;-144.99;78.95;52350.25;5055376;28;19958;-77
2022/11/13 09:23:59;;;;;;;;;;;;;;;-144.99;77.67;52393.06;5068902;28;19939;-76
2022/11/13 09:26:25;;;;;;;;;;;;;;;-144.99;76.63;52364.53;5060331;28;19932;-74
2022/11/13 09:28:52;;;;;;;;;;;;;;;-144.99;76.79;52362.50;5067773;28;20078;-75
2022/11/13 09:31:18;;;;;;;;;;;;;;;-144.99;79.76;52425.66;5063667;28;20015;-75
2022/11/13 09:33:46;;;;;;;;;;;;;;;-144.99;83.01;52403.25;5066810;28;20011;-75
2022/11/13 09:36:14;;;;;;;;;;;;;;;-144.99;87.58;52391.03;5068578;28;19975;-75
2022/11/13 09:38:40;;;;;;;;;;;;;;;-144.99;88.84;52391.03;5068719;28;19928;-75
2022/11/13 09:41:09;;;;;;;;;;;;;;;-144.99;89.71;52374.72;5062215;28;19957;-75
2022/11/13 09:43:39;;;;;;;;;;;;;;;-144.99;89.76;52427.72;5063372;28;19978;-75
2022/11/13 09:46:07;;;;;;;;;;;;;;;-144.99;91.16;52439.94;5053248;28;20652;-75
2022/11/13 09:48:35;;;;;;;;;;;;;;;-144.99;93.61;52476.63;5069831;28;19955;-75
2022/11/13 09:51:05;;;;;;;;;;;;;;;-144.99;94.97;52448.09;5067684;28;19973;-75
2022/11/13 09:53:39;;;;;;;;;;;;;;;-144.99;98.25;52448.09;5063472;28;19946;-75
2022/11/13 09:56:12;;;;;;;;;;;;;;;-144.99;100.00;52468.47;5075131;28;19950;-75
2022/11/13 09:58:45;;;;;;;;;;;;;;;-144.99;100.00;52419.56;5063041;28;19932;-75
2022/11/13 10:01:15;;;;;;;;;;;;;;;-144.99;100.00;52460.31;5074789;28;19955;-75
2022/11/13 10:03:45;;;;;;;;;;;;;;;-144.99;100.00;52403.25;5075150;28;20202;-76
2022/11/13 10:06:16;;;;;;;;;;;;;;;-144.99;100.00;52452.16;5085137;28;19941;-76
2022/11/13 10:08:48;;;;;;;;;;;;;;;-144.99;100.00;52423.63;5087280;28;19946;-75
2022/11/13 10:11:18;;;;;;;;;;;;;;;-144.99;100.00;52431.78;5084075;28;19951;-75
2022/11/13 10:13:47;;;;;;;;;;;;;;;-144.99;100.00;52439.94;5088260;28;19927;-76
2022/11/13 10:16:19;;;;;;;;;;;;;;;-144.99;100.00;52431.78;5084399;28;19952;-75
2022/11/13 10:18:46;;;;;;;;;;;;;;;-144.99;100.00;52423.63;5081736;28;19939;-76
2022/11/13 10:21:18;;;;;;;;;;;;;;;-144.99;100.00;52403.25;5082581;28;19966;-75
2022/11/13 10:23:47;;;;;;;;;;;;;;;-144.99;100.00;52456.25;5092594;28;19924;-75
2022/11/13 10:26:15;;;;;;;;;;;;;;;-144.99;100.00;52454.22;5086882;28;19972;-75
2022/11/13 10:28:41;;;;;;;;;;;;;;;-144.99;100.00;52446.06;5075002;28;19954;-75
2022/11/13 10:31:09;;;;;;;;;;;;;;;-144.99;100.00;52425.66;5084760;28;20001;-74
2022/11/13 10:33:35;;;;;;;;;;;;;;;-144.99;100.00;52399.19;5078232;28;19972;-75
2022/11/13 10:36:05;;;;;;;;;;;;;;;-144.99;100.00;52425.66;5072598;28;19945;-76
2022/11/13 10:38:35;;;;;;;;;;;;;;;-144.99;100.00;52431.78;5076412;28;19991;-76
2022/11/13 10:41:06;;;;;;;;;;;;;;;-144.99;100.00;52452.16;5064807;28;19957;-76
2022/11/13 10:43:33;;;;;;;;;;;;;;;-144.99;100.00;52462.34;5070051;28;20010;-73
2022/11/13 10:46:01;;;;;;;;;;;;;;;-144.99;100.00;52448.09;5067198;28;19970;-77
2022/11/13 10:48:28;;;;;;;;;;;;;;;-144.99;100.00;52460.31;5058548;28;19974;-76
2022/11/13 10:50:56;;;;;;;;;;;;;;;-144.99;100.00;52421.59;5060227;28;19956;-76
2022/11/13 10:53:25;;;;;;;;;;;;;;;-144.99;100.00;52460.31;5064586;28;19982;-75
2022/11/13 10:55:56;;;;;;;;;;;;;;;-144.99;100.00;52480.72;5068645;28;19959;-75
2022/11/13 10:58:22;;;;;;;;;;;;;;;-144.99;100.00;52415.47;5068769;28;20007;-75
2022/11/13 11:00:49;;;;;;;;;;;;;;;-144.99;100.00;52403.25;5067468;28;19990;-75
2022/11/13 11:03:18;;;;;;;;;;;;;;;-144.99;100.00;52409.38;5063156;28;19942;-74
2022/11/13 11:05:57;;;;;;;;;;;;;;;-144.99;100.00;52452.16;5069545;28;19938;-75
2022/11/13 11:08:27;;;;;;;;;;;;;;;-144.99;100.00;52446.06;5069928;28;19942;-74
2022/11/13 11:16:20;;;;;;;;;;;;;;;-144.99;100.00;52460.31;5082776;28;19948;-67
2022/11/13 11:18:49;;;;;;;;;;;;;;;-144.99;100.00;52439.94;5084880;28;20359;-67
2022/11/13 11:21:19;;;;;;;;;;;;;;;-144.99;100.00;52444.03;5085072;28;20512;-70
2022/11/13 11:23:49;;;;;;;;;;;;;;;-144.99;100.00;52452.16;5069262;28;19978;-68
2022/11/13 11:26:21;;;;;;;;;;;;;;;-144.99;100.00;52423.63;5068259;28;19986;-68
2022/11/13 11:28:49;;;;;;;;;;;;;;;-144.99;100.00;52452.16;5059713;28;20370;-70
2022/11/13 11:31:20;;;;;;;;;;;;;;;-144.99;100.00;52448.09;5062280;28;19962;-70
2022/11/13 11:33:50;;;;;;;;;;;;;;;-144.99;100.00;52452.16;5073201;28;19955;-68
2022/11/13 11:36:21;;;;;;;;;;;;;;;-144.99;100.00;52403.25;5068938;28;20444;-68
2022/11/13 11:38:52;;;;;;;;;;;;;;;-144.99;100.00;52448.09;5070447;28;20315;-69
2022/11/13 11:41:22;;;;;;;;;;;;;;;-144.99;100.00;52448.09;5069552;28;19963;-68
2022/11/13 11:43:57;;;;;;;;;;;;;;;-144.99;100.00;52448.09;5066800;28;20478;-68
2022/11/13 11:46:24;;;;;;;;;;;;;;;-144.99;100.00;52484.78;5069370;28;19941;-70
2022/11/13 11:48:50;;;;;;;;;;;;;;;-144.99;100.00;52419.56;5069811;28;19966;-68
2022/11/13 11:51:22;;;;;;;;;;;;;;;-144.99;100.00;52435.88;5071404;28;19983;-68
2022/11/13 11:53:55;;;;;;;;;;;;;;;-144.99;100.00;52435.88;5065547;28;20191;-69
2022/11/13 11:56:26;;;;;;;;;;;;;;;-144.99;100.00;52419.56;5068211;28;19948;-68
2022/11/13 11:59:07;;;;;;;;;;;;;;;-144.99;100.00;52411.41;5069995;28;19954;-69
2022/11/13 12:01:42;;;;;;;;;;;;;;;-144.99;100.00;52419.56;5070323;28;19951;-68
2022/11/13 12:04:15;;;;;;;;;;;;;;;-144.99;100.00;52478.66;5066736;28;19994;-69
2022/11/13 12:06:46;;;;;;;;;;;;;;;-144.99;100.00;52484.78;5057094;28;19959;-68
2022/11/13 12:09:18;;;;;;;;;;;;;;;-144.99;100.00;52468.47;5067928;28;19978;-69
2022/11/13 12:11:48;;;;;;;;;;;;;;;-144.99;100.00;52456.25;5073862;28;19955;-70
2022/11/13 12:14:21;;;;;;;;;;;;;;;-144.99;100.00;52399.19;5069711;28;19950;-69
2022/11/13 12:16:51;;;;;;;;;;;;;;;-144.99;100.00;52427.72;5073039;28;19995;-68
2022/11/13 12:19:22;;;;;;;;;;;;;;;-144.99;100.00;52444.03;5070593;28;19987;-68
2022/11/13 12:21:55;;;;;;;;;;;;;;;-144.99;100.00;52448.09;5065518;28;19972;-68
2022/11/13 12:24:35;;;;;;;;;;;;;;;-144.99;100.00;52439.94;5064499;28;20417;-67
2022/11/13 12:27:10;;;;;;;;;;;;;;;-144.99;100.00;52454.22;5068034;28;19987;-69
2022/11/13 12:29:47;;;;;;;;;;;;;;;-144.99;100.00;52435.88;5062467;28;20441;-67